createdAt,value
2022-08-25T00:02:08.963Z,12.98
2022-08-25T00:04:37.191Z,11.73
2022-08-25T00:07:06.062Z,12.68
2022-08-25T00:09:34.340Z,12.82
2022-08-25T00:12:02.345Z,12.90
2022-08-25T00:14:33.843Z,13.18
2022-08-25T00:17:01.389Z,13.13
2022-08-25T00:19:32.637Z,11.65
2022-08-25T00:22:01.017Z,12.25
2022-08-25T00:24:28.237Z,12.77
2022-08-25T00:26:58.412Z,12.50
2022-08-25T00:29:29.604Z,14.18
2022-08-25T00:31:58.301Z,14.43
2022-08-25T00:34:30.444Z,13.77
2022-08-25T00:36:57.595Z,14.30
2022-08-25T00:39:24.995Z,13.80
2022-08-25T00:41:54.381Z,13.38
2022-08-25T00:44:21.233Z,14.23
2022-08-25T00:46:53.988Z,15.23
2022-08-25T00:49:38.764Z,13.50
2022-08-25T00:52:22.469Z,13.32
2022-08-25T00:55:01.902Z,12.95
2022-08-25T00:57:36.446Z,13.88
2022-08-25T01:00:13.256Z,13.57
2022-08-25T01:02:40.311Z,13.57
2022-08-25T01:05:08.914Z,14.65
2022-08-25T01:07:36.932Z,13.82
2022-08-25T01:10:07.696Z,14.55
2022-08-25T01:12:36.493Z,14.68
2022-08-25T01:15:06.285Z,14.60
2022-08-25T01:17:54.503Z,13.63
2022-08-25T01:20:23.794Z,14.88
2022-08-25T01:22:57.446Z,15.00
2022-08-25T01:26:01.936Z,12.93
2022-08-25T01:28:28.755Z,14.75
2022-08-25T01:30:56.018Z,13.43
2022-08-25T01:33:23.396Z,13.95
2022-08-25T01:35:50.245Z,14.57
2022-08-25T01:38:17.340Z,11.35
2022-08-25T01:40:44.370Z,13.52
2022-08-25T01:43:11.732Z,13.07
2022-08-25T01:45:41.845Z,13.98
2022-08-25T01:48:09.741Z,13.00
2022-08-25T01:50:37.146Z,12.57
2022-08-25T01:53:03.921Z,13.43
2022-08-25T01:55:51.380Z,13.32
2022-08-25T01:58:20.282Z,12.35
2022-08-25T02:00:49.090Z,13.32
2022-08-25T02:03:20.883Z,13.25
2022-08-25T02:05:49.185Z,13.68
2022-08-25T02:08:16.077Z,14.68
2022-08-25T02:10:42.919Z,13.55
2022-08-25T02:13:10.177Z,13.23
2022-08-25T02:15:46.470Z,13.13
2022-08-25T02:18:14.245Z,13.73
2022-08-25T02:20:41.700Z,12.30
2022-08-25T02:23:08.557Z,11.82
2022-08-25T02:25:36.890Z,13.88
2022-08-25T02:28:04.265Z,11.15
2022-08-25T02:30:31.392Z,11.30
2022-08-25T02:32:59.657Z,12.90
2022-08-25T02:35:26.757Z,12.20
2022-08-25T02:37:54.544Z,10.95
2022-08-25T02:40:21.903Z,12.18
2022-08-25T02:42:49.908Z,10.75
2022-08-25T02:45:17.169Z,12.98
2022-08-25T02:47:44.598Z,11.30
2022-08-25T02:50:11.878Z,12.88
2022-08-25T02:52:40.155Z,10.85
2022-08-25T02:55:11.409Z,11.75
2022-08-25T02:57:38.183Z,12.23
2022-08-25T03:00:06.398Z,11.65
2022-08-25T03:02:33.775Z,11.25
2022-08-25T03:05:00.872Z,11.75
2022-08-25T03:07:27.810Z,12.07
2022-08-25T03:09:56.828Z,12.32
2022-08-25T03:12:23.693Z,11.18
2022-08-25T03:14:50.469Z,12.30
2022-08-25T03:17:17.733Z,11.82
2022-08-25T03:19:44.567Z,11.55
2022-08-25T03:22:11.330Z,11.65
2022-08-25T03:24:38.120Z,10.98
2022-08-25T03:27:05.439Z,11.70
2022-08-25T03:29:33.361Z,12.32
2022-08-25T03:32:01.231Z,11.85
2022-08-25T03:34:30.201Z,10.13
2022-08-25T03:36:58.306Z,10.52
2022-08-25T03:39:26.568Z,11.68
2022-08-25T03:41:53.936Z,11.88
2022-08-25T03:44:21.709Z,11.50
2022-08-25T03:46:52.054Z,11.48
2022-08-25T03:49:23.717Z,12.43
2022-08-25T03:51:52.756Z,11.43
2022-08-25T03:54:23.856Z,10.48
2022-08-25T03:56:50.669Z,11.82
2022-08-25T03:59:18.946Z,10.23
2022-08-25T04:01:51.360Z,11.45
2022-08-25T04:04:20.950Z,12.45
2022-08-25T04:06:47.757Z,11.05
2022-08-25T04:09:14.633Z,12.30
2022-08-25T04:11:42.588Z,11.55
2022-08-25T04:14:09.855Z,12.15
2022-08-25T04:16:43.269Z,11.23
2022-08-25T04:19:10.363Z,12.00
2022-08-25T04:21:39.006Z,13.05
2022-08-25T04:24:08.027Z,12.35
2022-08-25T04:26:44.734Z,11.95
2022-08-25T04:29:13.639Z,12.50
2022-08-25T04:31:43.001Z,11.77
2022-08-25T04:34:17.687Z,11.52
2022-08-25T04:37:03.706Z,11.88
2022-08-25T04:41:58.706Z,12.63
2022-08-25T04:44:25.567Z,11.05
2022-08-25T04:46:52.353Z,11.45
2022-08-25T04:49:19.496Z,13.68
2022-08-25T04:51:46.529Z,12.18
2022-08-25T04:54:17.078Z,11.63
2022-08-25T04:56:45.297Z,12.15
2022-08-25T04:59:13.884Z,13.35
2022-08-25T05:01:42.765Z,12.10
2022-08-25T05:04:14.634Z,13.25
2022-08-25T05:06:55.001Z,13.57
2022-08-25T05:09:21.873Z,11.88
2022-08-25T05:11:50.109Z,11.02
2022-08-25T05:14:21.590Z,10.75
2022-08-25T05:16:52.442Z,12.07
2022-08-25T05:19:19.521Z,11.02
2022-08-25T05:21:46.354Z,10.68
2022-08-25T05:24:13.120Z,11.23
2022-08-25T05:26:39.960Z,11.50
2022-08-25T05:29:06.966Z,11.23
2022-08-25T05:31:36.432Z,12.23
2022-08-25T05:34:10.366Z,10.82
2022-08-25T05:36:38.485Z,13.55
2022-08-25T05:39:05.518Z,11.20
2022-08-25T05:41:33.503Z,11.15
2022-08-25T05:44:00.389Z,10.63
2022-08-25T05:46:27.295Z,10.40
2022-08-25T05:48:58.920Z,11.23
2022-08-25T05:51:26.871Z,10.48
2022-08-25T05:53:54.145Z,10.35
2022-08-25T05:56:21.495Z,10.82
2022-08-25T05:58:48.840Z,9.25
2022-08-25T06:01:48.195Z,9.30
2022-08-25T06:04:18.280Z,10.20
2022-08-25T06:06:45.141Z,11.35
2022-08-25T06:09:12.304Z,11.57
2022-08-25T06:11:40.388Z,11.13
2022-08-25T06:14:09.769Z,10.68
2022-08-25T06:16:37.501Z,11.48
2022-08-25T06:19:04.825Z,10.98
2022-08-25T06:21:31.660Z,9.63
2022-08-25T06:23:58.522Z,11.05
2022-08-25T06:26:25.685Z,10.63
2022-08-25T06:28:53.290Z,10.18
2022-08-25T06:31:22.425Z,10.38
2022-08-25T06:33:50.344Z,11.20
2022-08-25T06:36:17.263Z,12.30
2022-08-25T06:38:44.073Z,10.55
2022-08-25T06:41:10.953Z,10.85
2022-08-25T06:43:38.150Z,11.25
2022-08-25T06:46:09.266Z,9.57
2022-08-25T06:48:36.120Z,11.73
2022-08-25T06:51:10.647Z,10.13
2022-08-25T06:53:41.727Z,11.02
2022-08-25T06:56:09.740Z,11.23
2022-08-25T06:58:36.879Z,10.90
2022-08-25T07:01:15.707Z,10.65
2022-08-25T07:03:46.639Z,10.27
2022-08-25T07:06:14.932Z,10.93
2022-08-25T07:08:46.670Z,11.00
2022-08-25T07:11:18.270Z,10.57
2022-08-25T07:13:45.984Z,10.88
2022-08-25T07:16:15.526Z,10.90
2022-08-25T07:18:44.202Z,9.35
2022-08-25T07:21:12.786Z,10.25
2022-08-25T07:23:43.402Z,11.23
2022-08-25T07:26:27.133Z,11.40
2022-08-25T07:28:59.809Z,10.15
2022-08-25T07:31:29.716Z,9.40
2022-08-25T07:34:16.283Z,11.05
2022-08-25T07:36:44.150Z,9.82
2022-08-25T07:39:11.557Z,10.13
2022-08-25T07:41:41.228Z,10.18
2022-08-25T07:44:10.970Z,10.13
2022-08-25T07:46:38.314Z,9.60
2022-08-25T07:49:16.471Z,9.93
2022-08-25T07:52:04.322Z,9.20
2022-08-25T07:54:33.920Z,8.02
2022-08-25T07:57:03.678Z,8.98
2022-08-25T07:59:31.175Z,9.43
2022-08-25T08:02:17.836Z,9.32
2022-08-25T08:04:50.536Z,8.23
2022-08-25T08:07:23.144Z,7.57
2022-08-25T08:10:05.299Z,7.45
2022-08-25T08:12:38.197Z,8.00
2022-08-25T08:15:10.087Z,6.22
2022-08-25T08:17:38.951Z,6.03
2022-08-25T08:20:09.020Z,5.70
2022-08-25T08:22:37.196Z,5.50
2022-08-25T08:25:04.775Z,6.75
2022-08-25T08:27:37.390Z,4.57
2022-08-25T08:30:06.342Z,4.60
2022-08-25T08:32:53.291Z,3.83
2022-08-25T08:35:19.998Z,5.60
2022-08-25T08:37:46.934Z,5.13
2022-08-25T08:40:20.997Z,5.15
2022-08-25T08:43:18.557Z,4.60
2022-08-25T08:45:52.002Z,4.03
2022-08-25T08:48:28.525Z,5.28
2022-08-25T08:51:23.170Z,6.78
2022-08-25T08:53:57.248Z,7.07
2022-08-25T08:56:35.018Z,5.80
2022-08-25T08:59:09.213Z,3.88
2022-08-25T09:01:46.903Z,6.63
2022-08-25T09:04:29.564Z,5.28
2022-08-25T09:06:59.902Z,4.57
2022-08-25T09:09:35.734Z,5.40
2022-08-25T09:12:27.856Z,5.07
2022-08-25T09:15:12.969Z,6.97
2022-08-25T09:17:43.409Z,4.75
2022-08-25T09:20:43.034Z,4.97
2022-08-25T09:24:00.915Z,5.63
2022-08-25T09:26:43.305Z,4.28
2022-08-25T09:29:16.626Z,4.65
2022-08-25T09:31:44.867Z,4.13
2022-08-25T09:34:28.451Z,4.38
2022-08-25T09:36:55.239Z,4.93
2022-08-25T09:39:23.903Z,3.85
2022-08-25T09:41:56.707Z,5.38
2022-08-25T09:44:32.281Z,5.30
2022-08-25T09:47:05.464Z,5.07
2022-08-25T09:49:44.036Z,3.78
2022-08-25T09:52:34.529Z,4.07
2022-08-25T09:55:16.170Z,4.30
2022-08-25T09:57:42.989Z,4.00
2022-08-25T10:00:21.668Z,4.80
2022-08-25T10:03:06.450Z,4.50
2022-08-25T10:05:40.034Z,4.32
2022-08-25T10:08:24.650Z,3.75
2022-08-25T10:10:58.302Z,3.38
2022-08-25T10:13:49.360Z,3.60
2022-08-25T10:16:30.848Z,3.65
2022-08-25T10:19:08.823Z,4.65
2022-08-25T10:21:39.303Z,4.38
2022-08-25T10:24:08.616Z,3.80
2022-08-25T10:26:48.572Z,4.90
2022-08-25T10:29:21.452Z,4.20
2022-08-25T10:34:44.439Z,3.33
2022-08-25T10:37:59.234Z,4.78
2022-08-25T10:40:33.624Z,3.58
2022-08-25T10:43:19.102Z,5.43
2022-08-25T10:45:52.627Z,13.48
2022-08-25T10:48:35.145Z,3.72
2022-08-25T10:51:36.277Z,4.57
2022-08-25T10:54:04.251Z,9.13
2022-08-25T10:56:40.237Z,7.15
2022-08-25T10:59:21.166Z,3.65
2022-08-25T11:02:03.389Z,5.65
2022-08-25T11:04:43.610Z,3.13
2022-08-25T11:07:19.676Z,3.42
2022-08-25T11:09:51.125Z,3.80
2022-08-25T11:12:23.986Z,5.40
2022-08-25T11:14:58.450Z,4.13
2022-08-25T11:17:28.951Z,4.00
2022-08-25T11:20:01.561Z,3.92
2022-08-25T11:22:59.167Z,3.03
2022-08-25T11:25:35.120Z,3.28
2022-08-25T11:28:30.807Z,4.15
2022-08-25T11:31:00.767Z,3.20
2022-08-25T11:33:30.571Z,3.80
2022-08-25T11:36:05.607Z,2.88
2022-08-25T11:39:05.287Z,3.20
2022-08-25T11:41:49.941Z,3.53
2022-08-25T11:44:20.136Z,3.75
2022-08-25T11:47:21.165Z,3.08
2022-08-25T11:49:53.324Z,3.60
2022-08-25T11:52:38.467Z,3.22
2022-08-25T11:55:23.364Z,4.43
2022-08-25T11:57:53.611Z,3.55
2022-08-25T12:00:20.575Z,3.17
2022-08-25T12:02:50.850Z,2.65
2022-08-25T12:05:17.637Z,3.22
2022-08-25T12:07:47.627Z,3.00
2022-08-25T12:10:19.466Z,3.33
2022-08-25T12:12:46.554Z,4.13
2022-08-25T12:15:24.596Z,2.72
2022-08-25T12:18:12.929Z,3.10
2022-08-25T12:20:55.978Z,2.97
2022-08-25T12:23:34.054Z,3.83
2022-08-25T12:26:18.842Z,2.92
2022-08-25T12:28:51.610Z,2.22
2022-08-25T12:31:30.123Z,4.10
2022-08-25T12:34:08.423Z,3.53
2022-08-25T12:36:39.643Z,3.55
2022-08-25T12:39:24.567Z,3.38
2022-08-25T12:42:32.615Z,3.72
2022-08-25T12:45:34.177Z,3.25
2022-08-25T12:48:28.838Z,3.08
2022-08-25T12:51:07.558Z,2.78
2022-08-25T12:53:39.160Z,2.92
2022-08-25T12:56:23.439Z,3.78
2022-08-25T12:59:02.974Z,4.13
2022-08-25T13:01:56.763Z,2.90
2022-08-25T13:05:17.630Z,4.38
2022-08-25T13:07:56.096Z,3.50
2022-08-25T13:10:48.424Z,2.90
2022-08-25T13:13:33.817Z,3.40
2022-08-25T13:16:10.107Z,4.40
2022-08-25T13:18:39.165Z,4.03
2022-08-25T13:21:17.585Z,4.03
2022-08-25T13:23:48.548Z,3.13
2022-08-25T13:26:23.473Z,3.42
2022-08-25T13:28:59.805Z,2.88
2022-08-25T13:31:29.659Z,3.13
2022-08-25T13:34:02.292Z,4.18
2022-08-25T13:36:55.410Z,3.70
2022-08-25T13:39:52.648Z,3.63
2022-08-25T13:42:16.491Z,3.60
2022-08-25T13:44:52.396Z,3.10
2022-08-25T13:47:44.988Z,3.95
2022-08-25T13:50:28.822Z,2.50
2022-08-25T13:53:11.549Z,4.63
2022-08-25T13:56:02.251Z,2.27
2022-08-25T13:58:44.343Z,3.63
2022-08-25T14:01:22.696Z,3.10
2022-08-25T14:04:33.114Z,3.15
2022-08-25T14:07:13.422Z,3.45
2022-08-25T14:09:48.489Z,3.50
2022-08-25T14:12:46.397Z,2.97
2022-08-25T14:15:22.147Z,3.90
2022-08-25T14:18:01.957Z,2.90
2022-08-25T14:20:31.876Z,3.70
2022-08-25T14:23:16.265Z,4.90
2022-08-25T14:25:47.346Z,3.90
2022-08-25T14:28:18.794Z,3.65
2022-08-25T14:30:59.852Z,2.83
2022-08-25T14:33:33.135Z,3.97
2022-08-25T14:36:02.870Z,2.95
2022-08-25T14:38:29.678Z,3.78
2022-08-25T14:40:59.278Z,3.58
2022-08-25T14:43:31.491Z,2.90
2022-08-25T14:46:02.509Z,3.80
2022-08-25T14:48:35.633Z,3.25
2022-08-25T14:51:04.294Z,4.05
2022-08-25T14:53:32.113Z,3.90
2022-08-25T14:55:59.499Z,3.47
2022-08-25T14:58:27.063Z,3.03
2022-08-25T15:00:54.284Z,3.67
2022-08-25T15:03:44.472Z,3.42
2022-08-25T15:06:16.658Z,3.30
2022-08-25T15:09:02.879Z,3.63
2022-08-25T15:11:31.770Z,3.17
2022-08-25T15:14:02.363Z,3.60
2022-08-25T15:16:35.485Z,3.88
2022-08-25T15:19:06.660Z,2.92
2022-08-25T15:21:35.629Z,3.38
2022-08-25T15:24:03.793Z,4.00
2022-08-25T15:26:31.329Z,2.97
2022-08-25T15:28:59.468Z,4.15
2022-08-25T15:31:26.848Z,3.10
2022-08-25T15:33:53.789Z,4.95
2022-08-25T15:36:24.842Z,4.35
2022-08-25T15:38:52.640Z,3.55
2022-08-25T15:41:21.017Z,3.47
2022-08-25T15:43:51.588Z,3.60
2022-08-25T15:46:21.927Z,3.55
2022-08-25T15:48:48.779Z,3.53
2022-08-25T15:51:17.745Z,4.20
2022-08-25T15:53:45.675Z,3.03
2022-08-25T15:56:26.818Z,3.35
2022-08-25T15:58:55.587Z,3.65
2022-08-25T16:01:26.744Z,3.42
2022-08-25T16:03:54.104Z,3.25
2022-08-25T16:06:21.573Z,3.58
2022-08-25T16:08:48.832Z,3.08
2022-08-25T16:11:18.829Z,3.60
2022-08-25T16:13:47.639Z,3.40
2022-08-25T16:16:16.710Z,3.22
2022-08-25T16:18:44.622Z,3.80
2022-08-25T16:21:14.147Z,3.65
2022-08-25T16:23:41.673Z,5.18
2022-08-25T16:26:11.078Z,3.42
2022-08-25T16:28:43.899Z,4.35
2022-08-25T16:31:13.181Z,4.05
2022-08-25T16:36:15.909Z,3.67
2022-08-25T16:38:48.887Z,3.72
2022-08-25T16:41:20.703Z,3.42
2022-08-25T16:43:47.662Z,3.08
2022-08-25T16:46:17.423Z,4.68
2022-08-25T16:48:44.934Z,3.85
2022-08-25T16:51:14.736Z,4.05
2022-08-25T16:54:00.577Z,3.85
2022-08-25T16:56:28.423Z,3.42
2022-08-25T16:58:58.448Z,4.20
2022-08-25T17:01:26.660Z,6.40
2022-08-25T17:03:55.823Z,3.97
2022-08-25T17:06:25.212Z,5.53
2022-08-25T17:08:52.689Z,4.93
2022-08-25T17:11:27.215Z,4.13
2022-08-25T17:13:57.236Z,4.85
2022-08-25T17:16:27.975Z,4.53
2022-08-25T17:18:55.857Z,4.10
2022-08-25T17:21:24.820Z,3.95
2022-08-25T17:23:53.267Z,5.13
2022-08-25T17:26:20.328Z,4.35
2022-08-25T17:28:55.190Z,3.95
2022-08-25T17:31:23.081Z,5.13
2022-08-25T17:33:52.370Z,4.95
2022-08-25T17:36:19.859Z,4.95
2022-08-25T17:38:56.901Z,4.97
2022-08-25T17:41:24.195Z,4.75
2022-08-25T17:43:51.047Z,3.95
2022-08-25T17:46:18.232Z,4.47
2022-08-25T17:48:45.253Z,4.57
2022-08-25T17:51:12.386Z,5.43
2022-08-25T17:53:39.275Z,6.97
2022-08-25T17:56:09.832Z,4.43
2022-08-25T17:58:37.489Z,7.03
2022-08-25T18:01:05.455Z,8.52
2022-08-25T18:03:33.270Z,7.10
2022-08-25T18:06:00.526Z,10.68
2022-08-25T18:08:34.883Z,10.95
2022-08-25T18:11:04.715Z,8.85
2022-08-25T18:13:31.743Z,7.78
2022-08-25T18:15:59.131Z,10.70
2022-08-25T18:18:27.309Z,11.23
2022-08-25T18:20:54.116Z,10.60
2022-08-25T18:23:21.124Z,8.88
2022-08-25T18:25:49.112Z,4.93
2022-08-25T18:28:16.351Z,5.40
2022-08-25T18:30:43.868Z,6.63
2022-08-25T18:33:12.093Z,6.00
2022-08-25T18:35:39.048Z,6.43
2022-08-25T18:38:25.685Z,6.57
2022-08-25T18:41:00.625Z,5.47
2022-08-25T18:43:31.906Z,5.70
2022-08-25T18:46:04.161Z,5.05
2022-08-25T18:48:32.306Z,6.88
2022-08-25T18:51:01.033Z,6.25
2022-08-25T18:53:30.713Z,5.82
2022-08-25T18:56:04.521Z,6.63
2022-08-25T18:58:31.744Z,5.60
2022-08-25T19:01:00.871Z,4.82
2022-08-25T19:03:29.707Z,6.25
2022-08-25T19:05:57.867Z,5.28
2022-08-25T19:08:24.979Z,5.57
2022-08-25T19:10:54.301Z,6.07
2022-08-25T19:13:22.679Z,5.50
2022-08-25T19:15:51.321Z,5.43
2022-08-25T19:18:26.231Z,7.63
2022-08-25T19:20:56.479Z,6.50
2022-08-25T19:23:23.478Z,5.43
2022-08-25T19:25:50.321Z,5.05
2022-08-25T19:28:17.234Z,6.68
2022-08-25T19:30:49.887Z,6.18
2022-08-25T19:33:42.353Z,5.40
2022-08-25T19:36:08.639Z,5.60
2022-08-25T19:38:37.572Z,5.22
2022-08-25T19:41:09.056Z,5.25
2022-08-25T19:43:56.781Z,5.22
2022-08-25T19:46:33.280Z,5.45
2022-08-25T19:49:08.760Z,4.75
2022-08-25T19:51:56.864Z,5.45
2022-08-25T19:54:35.553Z,5.00
2022-08-25T19:57:06.291Z,4.53
2022-08-25T19:59:42.633Z,5.63
2022-08-25T20:02:17.014Z,4.55
2022-08-25T20:04:49.649Z,5.85
2022-08-25T20:07:23.847Z,5.40
2022-08-25T20:09:52.371Z,6.28
2022-08-25T20:12:20.504Z,6.85
2022-08-25T20:14:49.121Z,7.88
2022-08-25T20:17:23.732Z,8.07
2022-08-25T20:19:57.187Z,7.13
2022-08-25T20:22:27.144Z,6.35
2022-08-25T20:25:04.010Z,6.28
2022-08-25T20:27:47.870Z,6.55
2022-08-25T20:32:45.347Z,5.95
2022-08-25T20:35:14.421Z,6.93
2022-08-25T20:37:44.465Z,6.38
2022-08-25T20:40:14.521Z,6.30
2022-08-25T20:42:43.477Z,7.05
2022-08-25T20:45:12.837Z,7.45
2022-08-25T20:47:39.669Z,6.97
2022-08-25T20:50:09.293Z,6.20
2022-08-25T20:52:37.394Z,7.70
2022-08-25T20:55:10.062Z,6.25
2022-08-25T20:57:37.075Z,6.55
2022-08-25T21:00:04.910Z,6.72
2022-08-25T21:02:31.812Z,6.03
2022-08-25T21:04:58.667Z,6.72
2022-08-25T21:07:26.100Z,6.20
2022-08-25T21:09:55.064Z,5.15
2022-08-25T21:12:22.036Z,5.20
2022-08-25T21:14:49.068Z,6.13
2022-08-25T21:17:19.231Z,5.35
2022-08-25T21:22:18.562Z,6.43
2022-08-25T21:24:46.004Z,6.30
2022-08-25T21:27:13.125Z,7.32
2022-08-25T21:29:44.632Z,7.15
2022-08-25T21:32:22.225Z,6.65
2022-08-25T21:34:53.976Z,6.88
2022-08-25T21:37:21.490Z,7.13
2022-08-25T21:39:48.412Z,6.68
2022-08-25T21:42:15.244Z,6.55
2022-08-25T21:44:42.321Z,7.40
2022-08-25T21:47:09.375Z,6.85
2022-08-25T21:49:37.288Z,7.25
2022-08-25T21:52:05.510Z,7.40
2022-08-25T21:54:32.664Z,6.32
2022-08-25T21:57:02.632Z,6.45
2022-08-25T21:59:36.112Z,6.60
2022-08-25T22:02:07.486Z,8.27
2022-08-25T22:04:34.642Z,7.03
2022-08-25T22:07:02.836Z,7.95
2022-08-25T22:09:30.628Z,8.02
2022-08-25T22:11:58.681Z,7.07
2022-08-25T22:14:27.244Z,6.15
2022-08-25T22:16:55.294Z,6.57
2022-08-25T22:19:23.041Z,6.10
2022-08-25T22:21:51.824Z,6.10
2022-08-25T22:24:19.495Z,6.20
2022-08-25T22:26:48.509Z,8.32
2022-08-25T22:29:25.009Z,5.82
2022-08-25T22:31:59.593Z,7.32
2022-08-25T22:34:32.854Z,6.63
2022-08-25T22:37:04.228Z,7.47
2022-08-25T22:39:34.255Z,7.93
2022-08-25T22:42:02.958Z,6.68
2022-08-25T22:44:30.042Z,6.20
2022-08-25T22:46:56.879Z,6.80
2022-08-25T22:49:23.724Z,7.10
2022-08-25T22:51:50.883Z,7.03
2022-08-25T22:54:18.052Z,5.82
2022-08-25T22:56:44.878Z,6.60
2022-08-25T22:59:13.220Z,6.53
2022-08-25T23:01:42.864Z,6.72
2022-08-25T23:04:10.715Z,6.55
2022-08-25T23:06:38.161Z,5.75
2022-08-25T23:09:08.315Z,6.22
2022-08-25T23:11:38.597Z,5.88
2022-08-25T23:14:08.367Z,7.53
2022-08-25T23:16:35.462Z,6.57
2022-08-25T23:19:02.400Z,5.40
2022-08-25T23:21:47.853Z,6.03
2022-08-25T23:24:29.224Z,5.75
2022-08-25T23:27:01.629Z,6.40
2022-08-25T23:29:30.144Z,6.40
2022-08-25T23:31:58.228Z,5.97
2022-08-25T23:34:25.770Z,5.78
2022-08-25T23:36:52.853Z,6.15
2022-08-25T23:39:21.619Z,5.82
2022-08-25T23:41:49.442Z,6.03
2022-08-25T23:44:17.513Z,6.22
2022-08-25T23:46:47.355Z,5.88
2022-08-25T23:49:18.547Z,5.57
2022-08-25T23:51:47.541Z,6.07
2022-08-25T23:54:15.903Z,6.38
2022-08-25T23:56:45.020Z,5.03
2022-08-25T23:59:24.903Z,6.45
